Time;durP1;ratioP1;P1;durP2;ratioP2;P2;SDS_P1;SDS_P2;PMS_P1;PMS_P2;Temp;Humidity;BMP_temperature;BMP_pressure;BME280_temperature;BME280_humidity;BME280_pressure;Samples;Min_cycle;Max_cycle;Signal;HPM_P1;HPM_P2
2021/05/11 00:00:05;;;;;;;4.75;4.35;;;15.30;99.90;;;;;;5049908;28;20422;-69
2021/05/11 00:02:49;;;;;;;4.85;4.43;;;15.30;99.90;;;;;;5104628;27;20343;-70
2021/05/11 00:05:16;;;;;;;4.93;4.43;;;15.20;99.90;;;;;;5089104;28;20056;-70
2021/05/11 00:07:43;;;;;;;6.68;4.60;;;15.10;99.90;;;;;;5088178;28;20510;-69
2021/05/11 00:10:11;;;;;;;4.53;4.13;;;15.10;99.90;;;;;;5089109;28;20154;-69
2021/05/11 00:12:37;;;;;;;4.50;4.10;;;15.10;99.90;;;;;;5090178;28;20036;-68
2021/05/11 00:15:06;;;;;;;4.60;4.20;;;15.10;99.90;;;;;;5089768;28;20055;-69
2021/05/11 00:17:35;;;;;;;4.40;4.00;;;15.10;99.90;;;;;;5071023;28;20048;-69
2021/05/11 00:20:03;;;;;;;4.22;3.90;;;15.10;99.90;;;;;;5087580;28;20068;-68
2021/05/11 00:22:30;;;;;;;4.60;4.20;;;15.00;99.90;;;;;;5091877;28;20059;-68
2021/05/11 00:24:57;;;;;;;4.50;4.10;;;15.10;99.90;;;;;;5089051;28;20106;-69
2021/05/11 00:27:24;;;;;;;4.40;4.00;;;15.10;99.90;;;;;;5072005;28;20044;-69
2021/05/11 00:29:51;;;;;;;4.60;4.20;;;15.10;99.90;;;;;;5070891;28;20040;-68
2021/05/11 00:32:18;;;;;;;4.10;3.80;;;15.10;99.90;;;;;;5082747;28;20052;-69
2021/05/11 00:34:45;;;;;;;4.75;4.00;;;15.10;99.90;;;;;;5070776;28;20136;-69
2021/05/11 00:37:12;;;;;;;5.07;3.80;;;15.10;99.90;;;;;;5075570;28;20056;-68
2021/05/11 00:39:38;;;;;;;4.00;3.60;;;14.90;99.90;;;;;;5077133;28;20060;-69
2021/05/11 00:42:06;;;;;;;4.15;3.75;;;15.00;99.90;;;;;;5081096;28;20431;-68
2021/05/11 00:44:33;;;;;;;4.32;3.80;;;14.90;99.90;;;;;;5075882;28;20127;-69
2021/05/11 00:47:02;;;;;;;3.80;3.47;;;14.90;99.90;;;;;;5083953;28;20078;-69
2021/05/11 00:49:30;;;;;;;4.05;3.65;;;14.80;99.90;;;;;;5075461;28;20551;-69
2021/05/11 00:51:58;;;;;;;3.95;3.58;;;14.80;99.90;;;;;;5067293;28;20483;-69
2021/05/11 00:54:26;;;;;;;3.65;3.35;;;14.80;99.90;;;;;;5066789;28;20625;-69
2021/05/11 00:56:54;;;;;;;3.60;3.30;;;14.80;99.90;;;;;;5072101;28;20044;-69
2021/05/11 00:59:25;;;;;;;3.95;3.33;;;14.80;99.90;;;;;;5073017;28;20055;-69
2021/05/11 01:02:00;;;;;;;5.22;3.58;;;14.80;99.90;;;;;;5073513;28;20423;-69
2021/05/11 01:04:27;;;;;;;4.18;3.28;;;14.80;99.90;;;;;;5081945;28;20407;-69
2021/05/11 01:07:15;;;;;;;3.60;3.30;;;14.80;99.90;;;;;;5073205;28;20118;-69
2021/05/11 01:09:42;;;;;;;3.55;3.25;;;14.80;99.90;;;;;;5082566;28;20071;-69
2021/05/11 01:12:08;;;;;;;3.90;3.50;;;14.80;99.90;;;;;;5073690;28;20438;-69
2021/05/11 01:14:35;;;;;;;3.67;3.38;;;14.80;99.90;;;;;;5063972;28;20045;-69
2021/05/11 01:17:03;;;;;;;3.70;3.30;;;14.80;99.90;;;;;;5058052;28;20049;-69
2021/05/11 01:25:15;;;;;;;3.50;3.20;;;14.80;99.90;;;;;;5058684;28;20534;-69
2021/05/11 01:27:55;;;;;;;3.60;3.30;;;14.80;99.90;;;;;;5054669;28;20080;-68
2021/05/11 01:49:18;;;;;;;4.30;3.35;;;14.50;99.90;;;;;;5067438;28;20048;-68
2021/05/11 02:24:40;;;;;;;4.35;3.22;;;14.40;99.90;;;;;;5045068;28;20514;-68
2021/05/11 02:27:07;;;;;;;3.92;3.20;;;14.40;99.90;;;;;;5032125;28;20219;-69
2021/05/11 02:29:34;;;;;;;3.85;3.25;;;14.40;99.90;;;;;;5026080;28;20057;-68
2021/05/11 02:32:01;;;;;;;4.18;3.35;;;14.30;99.90;;;;;;5043478;28;20132;-69
2021/05/11 02:34:28;;;;;;;3.78;3.40;;;14.30;99.90;;;;;;5039241;28;20106;-69
2021/05/11 02:36:55;;;;;;;3.75;3.17;;;14.30;99.90;;;;;;5044638;28;20048;-69
2021/05/11 02:39:21;;;;;;;4.55;3.42;;;14.30;99.90;;;;;;5040721;28;20064;-70
2021/05/11 02:41:48;;;;;;;3.47;3.17;;;14.30;99.90;;;;;;5039067;28;20045;-70
2021/05/11 02:44:18;;;;;;;4.60;3.50;;;14.30;99.90;;;;;;5035914;28;20053;-70
2021/05/11 02:46:45;;;;;;;4.70;3.88;;;14.30;99.90;;;;;;5044643;28;20041;-69
2021/05/11 02:49:13;;;;;;;3.70;3.25;;;14.20;99.90;;;;;;5042906;28;20583;-70
2021/05/11 02:51:40;;;;;;;3.53;3.10;;;14.20;99.90;;;;;;5032315;28;20049;-71
2021/05/11 02:54:07;;;;;;;4.25;3.20;;;14.20;99.90;;;;;;5036474;28;20531;-69
2021/05/11 02:56:33;;;;;;;4.72;3.10;;;14.20;99.90;;;;;;5043580;28;20041;-70
2021/05/11 02:59:00;;;;;;;4.20;3.10;;;14.20;99.90;;;;;;5035414;28;20102;-71
2021/05/11 03:01:27;;;;;;;4.20;3.20;;;14.20;99.90;;;;;;5053369;28;20514;-70
2021/05/11 03:03:54;;;;;;;3.78;3.17;;;14.10;99.90;;;;;;5084498;28;20048;-70
2021/05/11 03:06:21;;;;;;;3.28;2.90;;;14.10;99.90;;;;;;5077453;28;20048;-70
2021/05/11 03:08:48;;;;;;;3.80;2.90;;;14.10;99.90;;;;;;5078515;28;20105;-70
2021/05/11 03:11:15;;;;;;;3.38;3.08;;;14.10;99.90;;;;;;5079764;28;20084;-68
2021/05/11 03:13:42;;;;;;;3.67;2.72;;;14.10;99.90;;;;;;5080314;28;20056;-69
2021/05/11 03:16:09;;;;;;;3.45;2.97;;;14.10;99.90;;;;;;5075445;28;20543;-69
2021/05/11 03:18:36;;;;;;;4.40;3.15;;;14.10;99.90;;;;;;5076721;28;20466;-69
2021/05/11 03:21:03;;;;;;;3.28;2.97;;;14.10;99.90;;;;;;5086327;28;20070;-68
2021/05/11 03:23:31;;;;;;;3.70;3.20;;;14.10;99.90;;;;;;5085462;28;20048;-69
2021/05/11 03:25:57;;;;;;;5.18;3.15;;;14.10;99.90;;;;;;5082968;28;20764;-69
2021/05/11 03:28:24;;;;;;;3.88;2.70;;;14.00;99.90;;;;;;5080853;28;20052;-69
2021/05/11 03:30:51;;;;;;;4.28;3.13;;;14.10;99.90;;;;;;5077607;28;20123;-69
2021/05/11 03:33:18;;;;;;;3.95;3.30;;;14.00;99.90;;;;;;5055174;28;20068;-68
2021/05/11 03:35:45;;;;;;;3.10;2.72;;;13.90;99.90;;;;;;5063082;28;20052;-68
2021/05/11 03:38:11;;;;;;;4.75;3.00;;;13.90;99.90;;;;;;5090464;28;20043;-70
2021/05/11 03:40:39;;;;;;;3.58;2.95;;;13.90;99.90;;;;;;5060973;28;20403;-69
2021/05/11 03:43:32;;;;;;;2.90;2.60;;;13.80;99.90;;;;;;5075679;28;20052;-69
2021/05/11 03:45:59;;;;;;;3.80;2.97;;;13.90;99.90;;;;;;5075700;28;20123;-69
2021/05/11 03:48:26;;;;;;;4.25;3.13;;;13.90;99.90;;;;;;5081307;28;20044;-69
2021/05/11 03:50:54;;;;;;;5.25;3.20;;;13.90;99.90;;;;;;5063261;28;20567;-70
2021/05/11 03:53:21;;;;;;;3.53;3.05;;;13.90;99.90;;;;;;5083468;28;20059;-69
2021/05/11 03:55:51;;;;;;;4.53;3.10;;;13.80;99.90;;;;;;5071369;28;20055;-70
2021/05/11 03:58:18;;;;;;;5.07;3.10;;;13.90;99.90;;;;;;5076893;28;20102;-70
2021/05/11 04:00:45;;;;;;;3.83;2.90;;;13.80;99.90;;;;;;5074869;28;20060;-69
2021/05/11 04:03:13;;;;;;;4.32;3.13;;;13.90;99.90;;;;;;5060869;28;20059;-70
2021/05/11 04:05:40;;;;;;;4.10;3.15;;;13.90;99.90;;;;;;5055430;28;20053;-70
2021/05/11 04:08:07;;;;;;;3.70;3.20;;;13.90;99.90;;;;;;5076532;28;20449;-70
2021/05/11 04:10:43;;;;;;;3.83;3.00;;;13.90;99.90;;;;;;5080238;28;20044;-70
2021/05/11 04:13:33;;;;;;;4.13;3.15;;;13.90;99.90;;;;;;5088890;28;20055;-70
2021/05/11 04:18:46;;;;;;;5.55;3.63;;;13.80;99.90;;;;;;5078840;28;20056;-70
2021/05/11 04:21:14;;;;;;;5.18;3.60;;;13.80;99.90;;;;;;5087418;28;20097;-70
2021/05/11 04:23:45;;;;;;;4.60;3.33;;;13.90;99.90;;;;;;5078071;28;20040;-69
2021/05/11 04:26:14;;;;;;;4.25;3.20;;;13.80;99.90;;;;;;5086335;28;20138;-70
2021/05/11 04:28:41;;;;;;;6.22;3.13;;;13.90;99.90;;;;;;5067102;28;20044;-70
2021/05/11 04:31:09;;;;;;;4.30;3.20;;;13.90;99.90;;;;;;5068294;28;20049;-70
2021/05/11 04:33:36;;;;;;;4.97;3.30;;;13.80;99.90;;;;;;5084107;28;20079;-70
2021/05/11 04:36:04;;;;;;;5.53;3.58;;;13.90;99.90;;;;;;5088818;28;20040;-70
2021/05/11 04:38:32;;;;;;;5.20;3.40;;;13.80;99.90;;;;;;5085193;28;20576;-70
2021/05/11 04:40:59;;;;;;;5.88;3.20;;;13.90;99.90;;;;;;5073254;28;20048;-70
2021/05/11 04:43:28;;;;;;;5.15;3.45;;;13.80;99.90;;;;;;5079892;28;20091;-70
2021/05/11 04:46:40;;;;;;;3.88;2.80;;;13.80;99.90;;;;;;5081591;28;20036;-70
2021/05/11 04:48:50;;;;;;;4.50;3.20;;;13.80;99.90;;;;;;5083633;28;20048;-70
2021/05/11 04:51:19;;;;;;;4.82;3.30;;;13.90;99.90;;;;;;5060926;28;20041;-71
2021/05/11 04:53:48;;;;;;;4.07;3.53;;;13.90;99.90;;;;;;5081392;28;20441;-70
2021/05/11 04:56:16;;;;;;;4.03;3.10;;;13.90;99.90;;;;;;5086410;28;20507;-71
2021/05/11 04:58:43;;;;;;;4.43;3.13;;;13.90;99.90;;;;;;5064793;28;20083;-70
2021/05/11 05:01:10;;;;;;;4.65;3.90;;;13.80;99.90;;;;;;5083691;28;20044;-70
2021/05/11 05:03:40;;;;;;;4.72;3.33;;;13.80;99.90;;;;;;5084773;28;20829;-70
2021/05/11 05:06:07;;;;;;;5.72;3.92;;;13.80;99.90;;;;;;5078022;28;20045;-70
2021/05/11 05:08:35;;;;;;;4.57;3.63;;;13.80;99.90;;;;;;5083552;28;20049;-70
2021/05/11 05:11:02;;;;;;;4.90;3.80;;;13.80;99.90;;;;;;5078405;28;20439;-70
2021/05/11 05:13:31;;;;;;;4.82;3.80;;;13.90;99.90;;;;;;5079092;28;20521;-70
2021/05/11 05:15:59;;;;;;;7.05;4.07;;;13.90;99.90;;;;;;5058710;28;20087;-70
2021/05/11 05:18:29;;;;;;;4.82;3.80;;;13.90;99.90;;;;;;5078851;28;20067;-70
2021/05/11 05:20:56;;;;;;;5.72;4.55;;;13.90;99.90;;;;;;5062837;28;20043;-70
2021/05/11 05:23:34;;;;;;;5.75;4.30;;;14.00;99.90;;;;;;5066537;28;20525;-70
2021/05/11 05:26:05;;;;;;;6.50;4.28;;;14.00;99.90;;;;;;5088430;28;20052;-70
2021/05/11 05:28:41;;;;;;;7.72;4.68;;;14.10;99.90;;;;;;5082994;28;20418;-70
2021/05/11 05:31:09;;;;;;;6.13;4.50;;;14.30;99.90;;;;;;5084113;28;20029;-70
2021/05/11 05:33:39;;;;;;;7.20;4.50;;;14.30;99.90;;;;;;5085742;28;20072;-70
2021/05/11 05:36:07;;;;;;;5.82;4.82;;;14.50;99.90;;;;;;5086287;28;20048;-70
2021/05/11 05:38:38;;;;;;;6.25;4.38;;;14.60;99.90;;;;;;5065239;28;20060;-69
2021/05/11 05:41:11;;;;;;;6.30;4.97;;;14.70;99.90;;;;;;5082205;28;20072;-71
2021/05/11 05:43:39;;;;;;;5.82;5.15;;;14.70;99.90;;;;;;5084658;28;20502;-71
2021/05/11 05:46:06;;;;;;;8.18;4.90;;;14.80;99.90;;;;;;5080863;28;20053;-70
2021/05/11 05:48:35;;;;;;;7.45;4.90;;;14.70;99.90;;;;;;5084937;28;20044;-70
2021/05/11 05:51:04;;;;;;;7.35;5.80;;;14.80;99.90;;;;;;5082093;28;20052;-71
2021/05/11 05:53:39;;;;;;;5.85;4.90;;;14.90;99.90;;;;;;5090372;28;20051;-71
2021/05/11 05:56:07;;;;;;;6.57;5.40;;;14.90;99.90;;;;;;5056433;28;20093;-69
2021/05/11 05:58:35;;;;;;;6.63;5.45;;;14.90;99.90;;;;;;5080735;28;20361;-70
2021/05/11 06:01:07;;;;;;;6.88;5.28;;;15.00;99.90;;;;;;5078511;28;20386;-71
2021/05/11 06:03:50;;;;;;;9.57;5.72;;;14.90;99.90;;;;;;5060675;28;20406;-71
2021/05/11 06:06:18;;;;;;;7.05;5.70;;;14.90;99.90;;;;;;5083398;28;20055;-71
2021/05/11 06:08:47;;;;;;;8.40;6.32;;;14.90;99.90;;;;;;5059501;28;20036;-70
2021/05/11 06:13:47;;;;;;;8.82;5.93;;;15.00;99.90;;;;;;5077208;28;20071;-71
2021/05/11 06:19:00;;;;;;;10.75;5.40;;;15.10;99.90;;;;;;5061712;28;20196;-72
2021/05/11 06:21:28;;;;;;;6.30;5.40;;;15.40;99.90;;;;;;5076222;28;20059;-70
2021/05/11 06:23:55;;;;;;;6.72;5.78;;;15.60;99.90;;;;;;5082774;28;20086;-70
2021/05/11 06:26:23;;;;;;;6.95;5.53;;;15.70;99.90;;;;;;5067448;28;20048;-71
2021/05/11 06:28:52;;;;;;;6.78;5.55;;;15.70;99.90;;;;;;5079812;28;20101;-70
2021/05/11 06:31:20;;;;;;;6.82;5.63;;;15.90;99.90;;;;;;5060126;28;20040;-71
2021/05/11 06:33:47;;;;;;;6.65;5.90;;;16.10;99.90;;;;;;5083904;28;20569;-71
2021/05/11 06:36:15;;;;;;;6.82;5.85;;;16.20;99.90;;;;;;5087416;28;20495;-70
2021/05/11 06:38:42;;;;;;;9.07;5.72;;;16.30;99.90;;;;;;5085414;28;20055;-71
2021/05/11 06:41:11;;;;;;;5.93;5.32;;;16.40;99.90;;;;;;5062488;28;20062;-70
2021/05/11 06:43:40;;;;;;;6.50;5.75;;;16.60;99.90;;;;;;5076172;28;20041;-71
2021/05/11 06:54:12;;;;;;;7.80;6.50;;;17.30;99.90;;;;;;5079268;28;20052;-70
2021/05/11 06:56:41;;;;;;;6.93;6.13;;;17.40;99.90;;;;;;5085041;28;20052;-70
2021/05/11 06:59:09;;;;;;;6.20;5.60;;;17.60;99.90;;;;;;5083399;28;20040;-71
2021/05/11 07:01:36;;;;;;;6.97;6.28;;;17.50;99.90;;;;;;5068716;28;20164;-72
2021/05/11 07:04:05;;;;;;;7.60;6.90;;;17.60;99.90;;;;;;5059547;28;20127;-72
2021/05/11 07:06:33;;;;;;;6.97;6.38;;;17.30;99.90;;;;;;5074774;28;20040;-72
2021/05/11 07:09:05;;;;;;;9.25;6.93;;;17.50;99.90;;;;;;5078011;28;20083;-71
2021/05/11 07:14:04;;;;;;;7.70;7.00;;;17.20;99.90;;;;;;5084523;28;20055;-71
2021/05/11 07:16:33;;;;;;;6.85;6.22;;;17.30;99.90;;;;;;5073524;28;20150;-71
2021/05/11 07:19:00;;;;;;;7.68;6.38;;;17.50;99.90;;;;;;5086876;28;20054;-70
2021/05/11 07:21:27;;;;;;;8.27;7.47;;;17.60;99.90;;;;;;5074044;28;20052;-71
2021/05/11 07:23:57;;;;;;;6.95;6.35;;;17.70;99.90;;;;;;5084066;28;20044;-71
2021/05/11 07:26:27;;;;;;;13.55;10.60;;;17.80;99.90;;;;;;5079847;28;20040;-70
2021/05/11 07:29:11;;;;;;;10.15;8.05;;;17.90;99.90;;;;;;5059206;28;20172;-71
2021/05/11 07:31:39;;;;;;;7.43;6.72;;;18.10;99.90;;;;;;5086335;28;20056;-71
2021/05/11 07:34:08;;;;;;;8.18;7.43;;;18.10;99.90;;;;;;5079034;28;20432;-71
2021/05/11 07:36:35;;;;;;;13.70;7.40;;;18.10;99.90;;;;;;5070157;28;20083;-71
2021/05/11 07:39:04;;;;;;;7.95;7.25;;;18.10;99.90;;;;;;5074945;28;20040;-71
2021/05/11 07:41:32;;;;;;;7.70;6.97;;;18.00;99.90;;;;;;5080738;28;20074;-71
2021/05/11 07:43:59;;;;;;;7.40;6.15;;;17.80;99.90;;;;;;5079474;28;20052;-71
2021/05/11 08:05:58;;;;;;;7.10;5.72;;;17.90;99.90;;;;;;5007293;28;20074;-71
2021/05/11 08:14:28;;;;;;;6.85;5.65;;;17.80;99.90;;;;;;5005907;28;20080;-71
2021/05/11 08:16:45;;;;;;;7.82;6.43;;;18.10;99.90;;;;;;5007330;28;20115;-70
2021/05/11 08:30:04;;;;;;;7.70;6.90;;;18.20;99.90;;;;;;5007303;28;20448;-71
2021/05/11 08:32:31;;;;;;;7.65;6.95;;;18.00;99.90;;;;;;5006884;28;20045;-71
2021/05/11 08:35:03;;;;;;;7.40;6.70;;;18.10;99.90;;;;;;5009478;28;20049;-71
2021/05/11 08:37:30;;;;;;;7.65;6.20;;;18.10;99.90;;;;;;5007203;28;20064;-71
2021/05/11 08:39:58;;;;;;;7.95;7.00;;;18.30;99.90;;;;;;5007236;28;20054;-69
2021/05/11 08:42:26;;;;;;;7.47;6.78;;;18.40;99.90;;;;;;5040190;28;20495;-69
2021/05/11 08:44:53;;;;;;;8.00;7.20;;;18.60;99.90;;;;;;5064466;28;20048;-70
2021/05/11 08:47:21;;;;;;;8.27;7.47;;;18.90;99.90;;;;;;5059327;28;20050;-70
2021/05/11 08:49:49;;;;;;;7.90;7.10;;;19.10;99.90;;;;;;5080589;28;20090;-69
2021/05/11 08:55:05;;;;;;;8.77;6.78;;;19.50;99.90;;;;;;5059197;28;20434;-70
2021/05/11 09:06:18;;;;;;;8.82;7.93;;;20.70;99.90;;;;;;5076268;28;20040;-70
2021/05/11 09:09:08;;;;;;;8.75;8.02;;;20.60;99.90;;;;;;5076830;28;20109;-70
2021/05/11 09:25:49;;;;;;;9.00;8.10;;;20.30;99.90;;;;;;5059482;28;20102;-71
2021/05/11 09:28:36;;;;;;;9.10;8.30;;;20.70;99.90;;;;;;5078853;28;20093;-71
2021/05/11 09:45:36;;;;;;;10.52;9.63;;;21.30;99.90;;;;;;5084019;28;20052;-71
2021/05/11 09:56:24;;;;;;;9.13;8.32;;;21.70;99.90;;;;;;5082633;28;20044;-70
2021/05/11 10:48:25;;;;;;;12.77;11.55;;;20.60;99.90;;;;;;5084485;28;20049;-72
2021/05/11 10:50:57;;;;;;;11.77;10.77;;;20.50;99.90;;;;;;5089503;28;20044;-71
2021/05/11 10:53:47;;;;;;;11.25;10.25;;;20.40;99.90;;;;;;5079801;28;20044;-72
2021/05/11 10:59:26;;;;;;;11.55;10.52;;;20.60;99.90;;;;;;5082410;28;20093;-71
2021/05/11 11:02:04;;;;;;;11.25;10.35;;;20.40;99.90;;;;;;5082532;28;20139;-70
2021/05/11 11:04:45;;;;;;;11.73;10.73;;;20.70;99.90;;;;;;5085875;28;20379;-72
2021/05/11 11:07:14;;;;;;;11.20;10.25;;;20.90;99.90;;;;;;5075538;28;20465;-71
2021/05/11 11:09:55;;;;;;;12.50;11.32;;;21.20;99.90;;;;;;5071532;28;20044;-71
2021/05/11 11:12:27;;;;;;;11.20;10.13;;;20.90;99.90;;;;;;5060246;28;20517;-70
2021/05/11 11:14:56;;;;;;;11.55;10.60;;;21.20;99.90;;;;;;5085314;28;20056;-70
2021/05/11 11:17:23;;;;;;;11.85;10.85;;;21.30;99.90;;;;;;5082123;28;20064;-71
2021/05/11 11:19:54;;;;;;;12.20;11.00;;;21.10;99.90;;;;;;5083807;28;20040;-71
2021/05/11 11:25:12;;;;;;;12.30;10.93;;;21.20;99.90;;;;;;5081761;28;20048;-72
2021/05/11 11:27:48;;;;;;;12.07;10.77;;;20.90;99.90;;;;;;5081217;28;20052;-69
2021/05/11 11:30:16;;;;;;;12.48;11.25;;;21.00;99.90;;;;;;5081015;28;20142;-71
2021/05/11 11:32:45;;;;;;;11.30;10.40;;;20.70;99.90;;;;;;5086149;28;20475;-70
2021/05/11 11:35:13;;;;;;;11.98;10.77;;;20.60;99.90;;;;;;5079724;28;20102;-71
2021/05/11 11:37:41;;;;;;;11.00;10.00;;;20.60;99.90;;;;;;5079446;28;20528;-70
2021/05/11 11:40:15;;;;;;;11.70;10.50;;;20.30;99.90;;;;;;5080777;28;20072;-71
2021/05/11 11:42:43;;;;;;;11.88;10.68;;;20.50;99.90;;;;;;5081538;28;20052;-71
2021/05/11 11:45:26;;;;;;;11.65;10.55;;;20.40;99.90;;;;;;5076923;28;20458;-70
2021/05/11 11:48:03;;;;;;;11.75;10.55;;;20.30;99.90;;;;;;5078443;28;20133;-71
2021/05/11 11:50:35;;;;;;;10.98;9.98;;;20.20;99.90;;;;;;5089115;28;20547;-70
2021/05/11 11:53:16;;;;;;;11.32;10.32;;;20.20;99.90;;;;;;5064396;28;20037;-71
2021/05/11 11:56:00;;;;;;;11.23;10.13;;;20.10;99.90;;;;;;5080142;28;20388;-70
2021/05/11 11:58:32;;;;;;;11.43;10.45;;;20.10;99.90;;;;;;5055516;28;20044;-71
2021/05/11 12:01:10;;;;;;;11.85;10.15;;;20.00;99.90;;;;;;5079464;28;20044;-71
2021/05/11 12:03:42;;;;;;;12.27;10.70;;;19.90;99.90;;;;;;5080323;28;20084;-69
2021/05/11 12:06:15;;;;;;;11.55;10.35;;;19.80;99.90;;;;;;5082852;28;20052;-71
2021/05/11 12:08:42;;;;;;;12.30;11.07;;;19.90;99.90;;;;;;5085097;28;20114;-70
2021/05/11 12:11:10;;;;;;;12.35;11.15;;;19.80;99.90;;;;;;5082106;28;20043;-70
2021/05/11 12:13:39;;;;;;;11.88;10.88;;;19.70;99.90;;;;;;5077628;28;20052;-70
2021/05/11 12:16:15;;;;;;;11.20;10.20;;;19.50;99.90;;;;;;5082367;28;20411;-70
2021/05/11 12:21:35;;;;;;;13.48;11.00;;;19.60;99.90;;;;;;5082353;28;20052;-70
2021/05/11 12:24:10;;;;;;;11.20;10.10;;;19.60;99.90;;;;;;5076252;28;20045;-70
2021/05/11 12:26:41;;;;;;;11.13;10.13;;;19.40;99.90;;;;;;5071943;28;20048;-69
2021/05/11 12:29:28;;;;;;;11.82;10.63;;;19.40;99.90;;;;;;5082505;28;20053;-71
2021/05/11 12:31:56;;;;;;;12.20;11.00;;;19.30;99.90;;;;;;5084199;28;20110;-70
2021/05/11 12:34:25;;;;;;;13.30;10.48;;;19.20;99.90;;;;;;5078395;28;20064;-70
2021/05/11 12:36:59;;;;;;;12.00;10.63;;;19.10;99.90;;;;;;5083450;28;20044;-71
2021/05/11 12:39:36;;;;;;;13.15;11.85;;;19.10;99.90;;;;;;5083077;28;20040;-71
2021/05/11 12:42:41;;;;;;;11.73;10.63;;;19.10;99.90;;;;;;5082345;28;20411;-70
2021/05/11 12:45:15;;;;;;;11.38;10.18;;;18.90;99.90;;;;;;5061537;28;20055;-69
2021/05/11 12:47:47;;;;;;;12.18;10.88;;;19.10;99.90;;;;;;5077132;28;20057;-71
2021/05/11 12:50:15;;;;;;;;;;;19.30;99.90;;;;;;5072257;28;20609;-70
2021/05/11 12:52:44;;;;;;;11.80;10.60;;;19.30;99.90;;;;;;5053254;28;19924;-70
2021/05/11 12:55:22;;;;;;;15.25;11.73;;;19.40;99.90;;;;;;5077464;28;20396;-70
2021/05/11 12:57:57;;;;;;;12.40;11.10;;;19.40;99.90;;;;;;5087221;28;20135;-70
2021/05/11 13:00:39;;;;;;;10.60;9.60;;;19.40;99.90;;;;;;5083924;28;20049;-70
2021/05/11 13:14:40;;;;;;;11.15;9.82;;;19.70;99.90;;;;;;5079747;28;20052;-71
2021/05/11 13:27:39;;;;;;;11.32;10.10;;;19.70;99.90;;;;;;5082325;28;20048;-72
2021/05/11 13:35:27;;;;;;;12.32;11.02;;;19.40;99.90;;;;;;5089512;28;20044;-71
2021/05/11 13:37:55;;;;;;;11.07;10.02;;;19.20;99.90;;;;;;5069629;28;20036;-71
2021/05/11 13:40:23;;;;;;;11.02;9.88;;;19.00;99.90;;;;;;5088892;28;20051;-68
2021/05/11 13:42:54;;;;;;;12.05;9.90;;;19.00;99.90;;;;;;5084150;28;20453;-70
2021/05/11 13:45:24;;;;;;;11.98;9.60;;;19.10;99.90;;;;;;5051056;28;20046;-71
2021/05/11 13:48:08;;;;;;;10.38;9.25;;;19.20;99.90;;;;;;5088547;28;20048;-72
2021/05/11 13:53:05;;;;;;;10.43;9.18;;;19.70;99.90;;;;;;5082146;28;20044;-70
2021/05/11 13:56:02;;;;;;;11.43;9.63;;;20.40;99.90;;;;;;5060681;28;20094;-69
2021/05/11 14:03:58;;;;;;;10.93;9.25;;;21.00;99.90;;;;;;5067747;28;20062;-69
2021/05/11 14:06:25;;;;;;;10.38;9.38;;;21.00;99.90;;;;;;5059506;28;20044;-70
2021/05/11 14:08:53;;;;;;;10.95;9.80;;;21.00;99.90;;;;;;5085948;28;20442;-69
2021/05/11 14:11:21;;;;;;;10.70;9.55;;;20.70;99.90;;;;;;5083196;28;20051;-70
2021/05/11 14:13:48;;;;;;;10.30;9.40;;;20.40;99.90;;;;;;5062765;28;20083;-70
2021/05/11 14:16:16;;;;;;;11.60;10.43;;;20.30;99.90;;;;;;5070495;28;20051;-71
2021/05/11 14:18:43;;;;;;;11.32;10.25;;;20.10;99.90;;;;;;5067784;28;20051;-69
2021/05/11 14:21:10;;;;;;;10.50;9.48;;;19.80;99.90;;;;;;5088258;28;20044;-70
2021/05/11 14:23:44;;;;;;;12.88;10.43;;;19.60;99.90;;;;;;5070026;28;20152;-70
2021/05/11 14:26:12;;;;;;;12.90;10.27;;;19.30;99.90;;;;;;5079467;28;20425;-70
2021/05/11 14:28:39;;;;;;;10.80;9.32;;;19.10;99.90;;;;;;5076644;28;20093;-70
2021/05/11 14:31:07;;;;;;;11.20;10.07;;;19.00;99.90;;;;;;5081563;28;20128;-69
2021/05/11 14:33:34;;;;;;;11.48;9.38;;;19.00;99.90;;;;;;5062510;28;20052;-70
2021/05/11 14:36:02;;;;;;;11.00;9.90;;;18.90;99.90;;;;;;5066659;28;20425;-70
2021/05/11 14:38:30;;;;;;;9.98;9.07;;;18.80;99.90;;;;;;5069831;28;20466;-69
2021/05/11 14:41:02;;;;;;;11.00;9.48;;;18.80;99.90;;;;;;5064595;28;20040;-69
2021/05/11 14:43:33;;;;;;;9.82;8.93;;;18.80;99.90;;;;;;5088443;28;20059;-69
2021/05/11 14:46:05;;;;;;;9.82;8.88;;;18.60;99.90;;;;;;5089995;28;20047;-69
2021/05/11 14:48:35;;;;;;;10.25;9.15;;;18.60;99.90;;;;;;5056985;28;20044;-68
2021/05/11 14:51:04;;;;;;;10.15;9.15;;;18.50;99.90;;;;;;5071621;28;20035;-70
2021/05/11 14:53:32;;;;;;;13.48;8.98;;;18.50;99.90;;;;;;5061812;28;20071;-69
2021/05/11 14:56:01;;;;;;;10.02;8.93;;;18.50;99.90;;;;;;5089773;28;20055;-68
2021/05/11 14:58:33;;;;;;;10.27;8.75;;;18.40;99.90;;;;;;5085812;28;20056;-70
2021/05/11 15:01:01;;;;;;;11.38;9.20;;;18.20;99.90;;;;;;5046920;28;20052;-70
2021/05/11 15:03:28;;;;;;;11.82;8.43;;;18.20;99.90;;;;;;5061638;28;20048;-70
2021/05/11 15:06:16;;;;;;;10.27;9.27;;;18.20;99.90;;;;;;5064787;28;20049;-70
2021/05/11 15:08:43;;;;;;;10.18;8.80;;;18.20;99.90;;;;;;5070521;28;20052;-69
2021/05/11 15:11:13;;;;;;;9.93;8.48;;;18.30;99.90;;;;;;5063951;28;20044;-70
2021/05/11 15:13:44;;;;;;;11.63;9.23;;;18.20;99.90;;;;;;5088246;28;20052;-70
2021/05/11 15:16:14;;;;;;;9.80;8.80;;;18.20;99.90;;;;;;5085370;28;20052;-70
2021/05/11 15:18:42;;;;;;;9.80;8.85;;;18.10;99.90;;;;;;5066893;28;20106;-70
2021/05/11 15:21:10;;;;;;;10.82;8.38;;;18.00;99.90;;;;;;5085916;28;20437;-70
2021/05/11 15:23:41;;;;;;;13.05;8.52;;;18.00;99.90;;;;;;5069152;28;20061;-69
2021/05/11 15:26:11;;;;;;;10.93;8.63;;;18.00;99.90;;;;;;5082492;28;20406;-69
2021/05/11 15:28:40;;;;;;;9.55;8.40;;;17.80;99.90;;;;;;5084806;28;20412;-71
2021/05/11 15:31:07;;;;;;;11.52;8.55;;;17.70;99.90;;;;;;5068117;28;20044;-70
2021/05/11 15:33:35;;;;;;;11.38;8.23;;;17.60;99.90;;;;;;5064150;28;20064;-70
2021/05/11 15:36:03;;;;;;;10.23;9.13;;;17.40;99.90;;;;;;5083483;28;20051;-70
2021/05/11 15:38:31;;;;;;;11.80;8.90;;;17.30;99.90;;;;;;5066451;28;20531;-69
2021/05/11 15:40:59;;;;;;;10.05;8.32;;;17.10;99.90;;;;;;5083999;28;20509;-70
2021/05/11 15:43:27;;;;;;;11.65;8.13;;;17.10;99.90;;;;;;5068322;28;20051;-69
2021/05/11 15:45:54;;;;;;;9.88;7.75;;;17.10;99.90;;;;;;5084901;28;20047;-69
2021/05/11 15:48:23;;;;;;;10.55;9.00;;;17.10;99.90;;;;;;5059840;28;20445;-70
2021/05/11 15:50:52;;;;;;;9.75;8.35;;;17.10;99.90;;;;;;5084926;28;20541;-69
2021/05/11 15:53:20;;;;;;;10.75;8.38;;;16.90;99.90;;;;;;5074567;28;20058;-70
2021/05/11 15:55:48;;;;;;;9.38;7.90;;;16.90;99.90;;;;;;5075560;28;20097;-69
2021/05/11 15:58:17;;;;;;;9.35;7.93;;;16.90;99.90;;;;;;5062283;28;20048;-68
2021/05/11 16:00:50;;;;;;;11.85;8.88;;;16.90;99.90;;;;;;5086291;28;20056;-69
2021/05/11 16:03:19;;;;;;;9.55;8.23;;;17.00;99.90;;;;;;5081183;28;20143;-69
2021/05/11 16:05:48;;;;;;;12.75;8.23;;;16.90;99.90;;;;;;5060562;28;20063;-70
2021/05/11 16:08:18;;;;;;;9.60;8.13;;;16.80;99.90;;;;;;5086897;28;20059;-70
2021/05/11 16:10:47;;;;;;;8.95;7.97;;;16.60;99.90;;;;;;5078626;28;20047;-69
2021/05/11 16:13:20;;;;;;;9.88;8.32;;;16.40;99.90;;;;;;5062243;28;20055;-69
2021/05/11 16:15:47;;;;;;;12.75;9.57;;;16.40;99.90;;;;;;5058955;28;20102;-69
2021/05/11 16:18:15;;;;;;;9.48;8.48;;;16.40;99.90;;;;;;5083893;28;20052;-69
2021/05/11 16:20:42;;;;;;;10.02;9.02;;;16.40;99.90;;;;;;5065058;28;20449;-69
2021/05/11 16:23:10;;;;;;;12.32;9.10;;;16.20;99.90;;;;;;5044180;28;20040;-69
2021/05/11 16:25:38;;;;;;;10.10;8.65;;;16.20;99.90;;;;;;5064820;28;20442;-70
2021/05/11 16:28:07;;;;;;;12.02;8.93;;;16.10;99.90;;;;;;5070704;28;20443;-69
2021/05/11 16:30:36;;;;;;;13.38;9.68;;;16.00;99.90;;;;;;5059366;28;20040;-69
2021/05/11 16:33:08;;;;;;;11.38;10.18;;;15.90;99.90;;;;;;5064994;28;20123;-69
2021/05/11 16:35:35;;;;;;;;;;;15.90;99.90;;;;;;5085012;28;20055;-69
2021/05/11 16:38:03;;;;;;;11.35;10.07;;;15.90;99.90;;;;;;5076135;28;19931;-70
2021/05/11 16:40:31;;;;;;;13.55;11.05;;;15.80;99.90;;;;;;5061808;28;20040;-70
2021/05/11 16:42:58;;;;;;;11.98;10.63;;;15.70;99.90;;;;;;5058001;28;20056;-68
2021/05/11 16:45:26;;;;;;;11.98;10.23;;;15.70;99.90;;;;;;5061277;28;20120;-68
2021/05/11 16:47:54;;;;;;;12.00;10.70;;;15.60;99.90;;;;;;5087892;28;20048;-70
2021/05/11 16:50:31;;;;;;;12.55;10.60;;;15.60;99.90;;;;;;5072710;28;20047;-70
2021/05/11 16:53:02;;;;;;;11.07;9.88;;;15.50;99.90;;;;;;5068578;28;20097;-69
2021/05/11 16:55:31;;;;;;;13.35;11.30;;;15.50;99.90;;;;;;5068553;28;20369;-69
2021/05/11 16:57:59;;;;;;;14.27;11.27;;;15.50;99.90;;;;;;5065408;28;20135;-69
2021/05/11 17:00:28;;;;;;;11.07;9.98;;;15.40;99.90;;;;;;5074723;28;20127;-69
2021/05/11 17:02:55;;;;;;;12.48;11.05;;;15.40;99.90;;;;;;5065400;28;20075;-69
2021/05/11 17:05:23;;;;;;;13.32;11.85;;;15.40;99.90;;;;;;5085122;28;20071;-70
2021/05/11 17:07:51;;;;;;;12.50;10.30;;;15.40;99.90;;;;;;5088545;28;20059;-70